Time;durP1;ratioP1;P1;durP2;ratioP2;P2;SDS_P1;SDS_P2;PMS_P1;PMS_P2;Temp;Humidity;BMP_temperature;BMP_pressure;BME280_temperature;BME280_humidity;BME280_pressure;Samples;Min_cycle;Max_cycle;Signal;HPM_P1;HPM_P2
2022/06/26 00:02:10;;;;;;;4.18;3.28;;;19.90;99.90;;;;;;4948817;29;20028;-81
2022/06/26 00:04:36;;;;;;;5.32;2.67;;;19.90;99.90;;;;;;4957868;23;20044;-78
2022/06/26 00:07:03;;;;;;;4.60;3.03;;;20.00;99.90;;;;;;4944379;29;20097;-80
2022/06/26 00:09:29;;;;;;;6.05;3.25;;;20.00;99.90;;;;;;4953939;29;20035;-79
2022/06/26 00:11:55;;;;;;;4.60;3.03;;;19.90;99.90;;;;;;4958979;29;20043;-79
2022/06/26 00:14:21;;;;;;;6.95;3.20;;;19.90;99.90;;;;;;4958300;29;20087;-80
2022/06/26 00:16:46;;;;;;;4.40;2.85;;;19.90;99.90;;;;;;4960120;29;20030;-78
2022/06/26 00:19:12;;;;;;;4.63;3.30;;;19.90;99.90;;;;;;4961120;28;20035;-77
2022/06/26 00:21:38;;;;;;;4.78;2.72;;;19.90;99.90;;;;;;4961661;28;20016;-79
2022/06/26 00:24:04;;;;;;;7.18;3.28;;;19.90;99.90;;;;;;4961835;28;20063;-78
2022/06/26 00:26:30;;;;;;;4.47;2.80;;;19.90;99.90;;;;;;4951761;29;20392;-79
2022/06/26 00:28:56;;;;;;;4.35;2.80;;;19.90;99.90;;;;;;4941930;29;20024;-78
2022/06/26 00:31:22;;;;;;;7.85;3.30;;;20.20;99.90;;;;;;4941285;29;20055;-79
2022/06/26 00:33:48;;;;;;;8.40;3.70;;;20.60;99.90;;;;;;4942461;29;20028;-78
2022/06/26 00:36:14;;;;;;;8.02;3.78;;;20.70;99.90;;;;;;4944900;29;20019;-80
2022/06/26 00:38:40;;;;;;;5.20;3.28;;;20.80;99.90;;;;;;4945558;29;20369;-78
2022/06/26 00:41:07;;;;;;;9.57;3.92;;;20.80;99.90;;;;;;4926769;29;20035;-80
2022/06/26 00:43:32;;;;;;;6.43;3.67;;;20.70;99.90;;;;;;4947998;29;20099;-79
2022/06/26 00:45:58;;;;;;;8.02;3.67;;;20.60;99.90;;;;;;4947942;29;20031;-79
2022/06/26 00:48:24;;;;;;;6.03;3.95;;;20.50;99.90;;;;;;4949354;29;20059;-80
2022/06/26 00:50:51;;;;;;;5.68;3.50;;;20.40;99.90;;;;;;4951659;29;20083;-77
2022/06/26 00:53:18;;;;;;;5.68;3.55;;;20.40;99.90;;;;;;4953261;29;20023;-77
2022/06/26 00:55:44;;;;;;;9.57;3.80;;;20.40;99.90;;;;;;4951962;29;20030;-80
2022/06/26 00:58:10;;;;;;;5.95;3.60;;;20.30;99.90;;;;;;4951959;29;20122;-78
2022/06/26 01:00:36;;;;;;;6.68;3.70;;;20.30;99.90;;;;;;4952920;29;20019;-79
2022/06/26 01:03:02;;;;;;;5.25;3.33;;;20.30;99.90;;;;;;4952364;29;20496;-78
2022/06/26 01:05:28;;;;;;;4.85;3.20;;;20.30;99.90;;;;;;4951772;29;20043;-82
2022/06/26 01:07:53;;;;;;;6.53;3.45;;;20.30;99.90;;;;;;4950377;29;20075;-77
2022/06/26 01:10:20;;;;;;;3.95;2.88;;;20.20;99.90;;;;;;4951546;29;20461;-77
2022/06/26 01:12:47;;;;;;;7.72;2.65;;;20.20;99.90;;;;;;4950375;29;20027;-79
2022/06/26 01:15:12;;;;;;;4.82;3.30;;;20.30;99.90;;;;;;4950431;29;20130;-81
2022/06/26 01:17:39;;;;;;;4.35;3.63;;;20.30;99.90;;;;;;4946717;29;20082;-80
2022/06/26 01:20:07;;;;;;;7.05;2.92;;;20.40;99.90;;;;;;4941719;29;20020;-79
2022/06/26 01:22:33;;;;;;;5.68;2.85;;;20.40;99.90;;;;;;4943563;29;20043;-80
2022/06/26 01:24:59;;;;;;;6.53;3.50;;;20.50;99.90;;;;;;4931732;29;20020;-80
2022/06/26 01:27:28;;;;;;;7.97;3.22;;;20.70;99.90;;;;;;4954009;29;20412;-80
2022/06/26 01:29:54;;;;;;;3.38;2.88;;;20.80;99.90;;;;;;4957505;29;20040;-79
2022/06/26 01:32:21;;;;;;;6.18;3.25;;;20.80;99.90;;;;;;4958890;28;20040;-78
2022/06/26 01:34:47;;;;;;;4.55;3.20;;;20.80;99.90;;;;;;4959640;28;20048;-78
2022/06/26 01:37:13;;;;;;;7.95;3.03;;;20.80;99.90;;;;;;4960137;28;20031;-77
2022/06/26 01:39:39;;;;;;;8.05;2.97;;;20.70;99.90;;;;;;4952684;28;20034;-78
2022/06/26 01:42:05;;;;;;;7.53;3.28;;;20.60;99.90;;;;;;4939957;29;20583;-79
2022/06/26 01:44:31;;;;;;;5.53;2.75;;;20.60;99.90;;;;;;4924365;29;20031;-78
2022/06/26 01:46:57;;;;;;;4.60;3.10;;;20.70;99.90;;;;;;4922948;29;20038;-78
2022/06/26 01:49:30;;;;;;;5.47;2.72;;;21.00;99.90;;;;;;4939679;29;20028;-79
2022/06/26 01:51:55;;;;;;;4.70;3.03;;;21.00;99.90;;;;;;4939670;29;20042;-78
2022/06/26 01:54:21;;;;;;;4.85;2.80;;;21.10;99.90;;;;;;4941377;29;20035;-79
2022/06/26 01:56:48;;;;;;;6.63;2.88;;;20.90;99.90;;;;;;4942118;29;20028;-81
2022/06/26 01:59:15;;;;;;;8.60;2.25;;;20.80;99.90;;;;;;4926544;29;20027;-79
2022/06/26 02:01:44;;;;;;;8.38;2.65;;;20.70;99.90;;;;;;4944898;29;20036;-80
2022/06/26 02:04:16;;;;;;;5.20;2.35;;;20.60;99.90;;;;;;4943236;29;20047;-79
2022/06/26 02:06:43;;;;;;;4.47;2.58;;;20.50;99.90;;;;;;4943545;29;20453;-78
2022/06/26 02:13:36;;;;;;;8.00;2.67;;;20.50;99.90;;;;;;4942302;29;20032;-79
2022/06/26 02:14:45;;;;;;;;;;;20.50;99.90;;;;;;4941425;29;20480;-80
2022/06/26 02:17:11;;;;;;;4.07;2.67;;;20.70;99.90;;;;;;4941706;29;20013;-80
2022/06/26 02:19:37;;;;;;;4.22;2.50;;;20.70;99.90;;;;;;4948920;29;20028;-77
2022/06/26 02:22:03;;;;;;;4.10;2.90;;;20.60;99.90;;;;;;4946656;29;20028;-79
2022/06/26 02:24:29;;;;;;;7.45;2.67;;;20.60;99.90;;;;;;4946795;29;20035;-78
2022/06/26 02:26:55;;;;;;;9.13;2.78;;;20.60;99.90;;;;;;4944920;29;20038;-79
2022/06/26 02:29:20;;;;;;;9.10;2.85;;;20.70;99.90;;;;;;4933135;29;20143;-78
2022/06/26 02:31:46;;;;;;;2.88;2.65;;;20.60;99.90;;;;;;4934219;29;20028;-79
2022/06/26 02:34:13;;;;;;;6.30;3.03;;;20.50;99.90;;;;;;4947481;29;20024;-79
2022/06/26 02:36:42;;;;;;;8.60;3.00;;;20.30;99.90;;;;;;4950827;29;20111;-79
2022/06/26 02:39:08;;;;;;;4.45;2.50;;;20.20;99.90;;;;;;4951905;29;20027;-79
2022/06/26 02:41:34;;;;;;;3.90;3.15;;;20.10;99.90;;;;;;4951110;29;20035;-79
2022/06/26 02:44:00;;;;;;;6.63;3.00;;;20.20;99.90;;;;;;4947319;29;20027;-79
2022/06/26 02:46:27;;;;;;;13.38;3.08;;;20.10;99.90;;;;;;4950757;29;20031;-79
2022/06/26 02:48:54;;;;;;;4.13;2.90;;;20.10;99.90;;;;;;4952744;29;20182;-78
2022/06/26 02:51:19;;;;;;;6.25;2.60;;;20.30;99.90;;;;;;4951835;29;20028;-78
2022/06/26 02:53:45;;;;;;;7.43;2.88;;;20.40;99.90;;;;;;4951862;29;20139;-80
2022/06/26 02:56:12;;;;;;;6.38;2.58;;;20.40;99.90;;;;;;4935028;29;20020;-79
2022/06/26 02:58:40;;;;;;;4.25;2.65;;;20.40;99.90;;;;;;4950927;29;20024;-78
2022/06/26 03:01:06;;;;;;;6.00;3.05;;;20.40;99.90;;;;;;4952842;29;20059;-77
2022/06/26 03:03:34;;;;;;;5.60;2.92;;;20.50;99.90;;;;;;4946522;29;20404;-79
2022/06/26 03:06:00;;;;;;;4.32;3.40;;;20.50;99.90;;;;;;4928850;29;20035;-80
2022/06/26 03:08:26;;;;;;;3.28;2.95;;;20.40;99.90;;;;;;4928914;29;20051;-80
2022/06/26 03:10:52;;;;;;;8.88;3.17;;;20.20;99.90;;;;;;4945020;29;20027;-79
2022/06/26 03:13:18;;;;;;;5.95;3.25;;;20.10;99.90;;;;;;4948666;29;20020;-79
2022/06/26 03:15:45;;;;;;;4.05;3.35;;;20.00;99.90;;;;;;4946790;29;20045;-79
2022/06/26 03:18:12;;;;;;;5.13;3.50;;;19.80;99.90;;;;;;4946893;29;20042;-78
2022/06/26 03:20:40;;;;;;;5.28;3.85;;;19.70;99.90;;;;;;4951510;29;20028;-79
2022/06/26 03:23:09;;;;;;;5.70;3.22;;;19.60;99.90;;;;;;4945590;29;20072;-80
2022/06/26 03:25:34;;;;;;;4.63;3.28;;;19.50;99.90;;;;;;4949382;29;20028;-77
2022/06/26 03:28:00;;;;;;;7.88;3.60;;;19.50;99.90;;;;;;4949055;29;20360;-79
2022/06/26 03:30:26;;;;;;;5.25;3.30;;;19.50;99.90;;;;;;4950689;29;20030;-77
2022/06/26 03:32:52;;;;;;;10.07;3.38;;;19.50;99.90;;;;;;4949054;29;20506;-78
2022/06/26 03:35:18;;;;;;;7.03;3.90;;;19.50;99.90;;;;;;4944440;29;20023;-80
2022/06/26 03:37:46;;;;;;;6.70;3.72;;;19.50;99.90;;;;;;4948062;29;20032;-78
2022/06/26 03:40:12;;;;;;;9.23;4.00;;;19.40;99.90;;;;;;4947918;29;20073;-78
2022/06/26 03:42:39;;;;;;;6.47;3.88;;;19.40;99.90;;;;;;4942104;29;20031;-80
2022/06/26 03:45:06;;;;;;;8.73;3.92;;;19.40;99.90;;;;;;4926237;29;20115;-78
2022/06/26 03:47:33;;;;;;;4.88;3.08;;;19.40;99.90;;;;;;4942047;29;20634;-79
2022/06/26 03:49:59;;;;;;;6.82;3.85;;;19.30;99.90;;;;;;4942555;29;20024;-79
2022/06/26 03:52:25;;;;;;;4.43;3.45;;;19.30;99.90;;;;;;4947181;29;20035;-78
2022/06/26 03:54:53;;;;;;;4.63;3.33;;;19.30;99.90;;;;;;4942619;29;20034;-81
2022/06/26 03:57:22;;;;;;;5.93;3.60;;;19.40;99.90;;;;;;4941553;29;20113;-78
2022/06/26 03:59:50;;;;;;;5.60;2.75;;;19.40;99.90;;;;;;4941206;29;20087;-78
2022/06/26 04:02:26;;;;;;;6.88;3.28;;;19.50;99.90;;;;;;4942685;29;20047;-79
2022/06/26 04:04:52;;;;;;;4.03;2.60;;;19.80;99.90;;;;;;4942275;29;20032;-78
2022/06/26 04:07:20;;;;;;;4.93;2.78;;;20.00;99.90;;;;;;4942621;29;20369;-78
2022/06/26 04:09:49;;;;;;;8.30;3.10;;;20.30;99.90;;;;;;4941568;29;20083;-78
2022/06/26 04:12:19;;;;;;;4.35;3.00;;;20.30;99.90;;;;;;4941393;29;20039;-78
2022/06/26 04:14:46;;;;;;;4.72;2.65;;;20.60;99.90;;;;;;4942101;29;20032;-79
2022/06/26 04:17:12;;;;;;;3.25;2.78;;;20.60;99.90;;;;;;4936017;29;20028;-78
2022/06/26 04:19:46;;;;;;;3.10;2.20;;;20.60;99.90;;;;;;4951178;29;20059;-78
2022/06/26 04:22:12;;;;;;;5.35;2.67;;;20.50;99.90;;;;;;4953046;29;20059;-78
2022/06/26 04:24:39;;;;;;;6.10;2.72;;;20.50;99.90;;;;;;4943468;29;20055;-79
2022/06/26 04:27:05;;;;;;;3.45;2.40;;;20.40;99.90;;;;;;4941043;29;20032;-78
2022/06/26 04:29:31;;;;;;;3.33;2.72;;;20.40;99.90;;;;;;4943020;29;20059;-79
2022/06/26 04:31:57;;;;;;;7.70;2.80;;;20.40;99.90;;;;;;4942073;29;20028;-79
2022/06/26 04:34:24;;;;;;;5.10;2.58;;;20.40;99.90;;;;;;4943087;29;20028;-78
2022/06/26 04:36:51;;;;;;;4.05;2.88;;;20.40;99.90;;;;;;4949563;29;20031;-77
2022/06/26 04:39:19;;;;;;;8.93;3.13;;;20.50;99.90;;;;;;4946733;29;20106;-79
2022/06/26 04:41:49;;;;;;;2.85;2.45;;;20.50;99.90;;;;;;4945832;29;20036;-79
2022/06/26 04:44:15;;;;;;;3.72;2.90;;;20.60;99.90;;;;;;4947225;29;20036;-78
2022/06/26 04:46:42;;;;;;;3.15;2.35;;;20.70;99.90;;;;;;4948933;29;20408;-78
2022/06/26 04:49:08;;;;;;;4.07;2.67;;;20.90;99.90;;;;;;4949294;29;20508;-78
2022/06/26 04:51:35;;;;;;;4.80;3.13;;;20.90;99.90;;;;;;4943277;29;20038;-79
2022/06/26 04:54:05;;;;;;;4.82;3.22;;;21.20;99.90;;;;;;4947127;29;20043;-78
2022/06/26 04:56:36;;;;;;;4.43;2.72;;;21.70;99.90;;;;;;4947475;29;20028;-78
2022/06/26 04:59:04;;;;;;;7.03;2.90;;;22.20;99.90;;;;;;4947611;29;20028;-78
2022/06/26 05:01:30;;;;;;;3.58;2.58;;;22.40;99.90;;;;;;4949416;29;20075;-78
2022/06/26 05:04:22;;;;;;;6.18;3.15;;;22.40;99.90;;;;;;4947869;29;20039;-77
2022/06/26 05:07:17;;;;;;;2.72;2.22;;;22.20;99.90;;;;;;4937533;29;20039;-77
2022/06/26 05:09:43;;;;;;;4.95;2.72;;;22.00;99.90;;;;;;4948807;29;20173;-77
2022/06/26 05:12:11;;;;;;;3.78;2.55;;;21.90;99.90;;;;;;4947021;29;20027;-78
2022/06/26 05:14:56;;;;;;;3.83;2.42;;;22.00;99.90;;;;;;4948399;29;20035;-78
2022/06/26 05:17:32;;;;;;;3.42;2.13;;;22.00;99.90;;;;;;4952699;29;20027;-77
2022/06/26 05:19:58;;;;;;;3.33;2.30;;;22.10;99.90;;;;;;4949537;29;20042;-78
2022/06/26 05:22:24;;;;;;;4.00;2.08;;;22.20;99.90;;;;;;4933667;29;20039;-79
2022/06/26 05:24:50;;;;;;;2.90;2.42;;;22.20;99.90;;;;;;4956110;28;20032;-77
2022/06/26 05:27:16;;;;;;;2.78;2.00;;;22.30;99.90;;;;;;4959495;28;20056;-77
2022/06/26 05:29:43;;;;;;;3.25;2.22;;;22.30;99.90;;;;;;4959451;28;20036;-76
2022/06/26 05:32:09;;;;;;;2.88;2.00;;;22.40;99.90;;;;;;4959508;28;20032;-78
2022/06/26 05:34:34;;;;;;;6.13;2.20;;;22.50;99.90;;;;;;4960419;28;20030;-79
2022/06/26 05:37:00;;;;;;;6.07;2.35;;;22.50;99.90;;;;;;4959293;28;20095;-78
2022/06/26 05:39:26;;;;;;;2.42;1.95;;;22.60;99.90;;;;;;4952741;28;20087;-79
2022/06/26 05:41:52;;;;;;;5.10;2.17;;;22.70;99.90;;;;;;4941257;29;20036;-80
2022/06/26 05:44:19;;;;;;;4.75;1.92;;;22.80;99.90;;;;;;4940399;29;20035;-79
2022/06/26 05:46:47;;;;;;;3.92;2.10;;;22.90;99.90;;;;;;4940357;29;20031;-80
2022/06/26 05:49:31;;;;;;;3.08;2.30;;;23.00;99.90;;;;;;4941300;29;20530;-79
2022/06/26 05:52:27;;;;;;;2.47;2.20;;;23.20;99.90;;;;;;4885153;29;20106;-79
2022/06/26 05:55:11;;;;;;;6.35;2.30;;;23.20;99.90;;;;;;4934845;29;20028;-78
2022/06/26 05:57:58;;;;;;;5.68;2.63;;;23.20;99.90;;;;;;4927711;29;20114;-80
2022/06/26 06:00:42;;;;;;;3.80;2.30;;;23.30;99.90;;;;;;4923766;29;20039;-79
2022/06/26 06:03:08;;;;;;;3.08;1.95;;;23.40;99.90;;;;;;4920689;29;20043;-78
2022/06/26 06:05:35;;;;;;;6.90;2.22;;;23.40;99.90;;;;;;4961079;23;20054;-84
2022/06/26 06:08:02;;;;;;;4.97;2.80;;;23.50;99.90;;;;;;4934575;29;20056;-85
2022/06/26 06:10:28;;;;;;;3.88;2.15;;;23.50;99.90;;;;;;4936148;29;20031;-84
2022/06/26 06:12:54;;;;;;;4.03;2.60;;;23.60;99.90;;;;;;4948998;29;20038;-86
2022/06/26 06:15:22;;;;;;;5.30;2.85;;;23.60;99.90;;;;;;4938428;29;20035;-85
2022/06/26 06:17:50;;;;;;;7.63;2.40;;;23.70;99.90;;;;;;4936232;29;20025;-82
2022/06/26 06:20:19;;;;;;;4.70;2.60;;;23.70;99.90;;;;;;4916932;29;20035;-83
2022/06/26 06:23:07;;;;;;;4.50;3.17;;;23.80;99.90;;;;;;4930856;29;20109;-85
2022/06/26 06:25:33;;;;;;;3.25;2.95;;;24.00;99.90;;;;;;4930809;29;20040;-83
2022/06/26 06:28:04;;;;;;;3.90;2.92;;;23.90;99.90;;;;;;4924380;29;20115;-83
2022/06/26 06:30:35;;;;;;;2.63;2.42;;;23.90;99.90;;;;;;4950247;29;20087;-84
2022/06/26 06:33:01;;;;;;;6.88;3.13;;;23.90;99.90;;;;;;4931752;29;20057;-86
2022/06/26 06:35:35;;;;;;;5.03;2.65;;;23.90;99.90;;;;;;4913163;29;20054;-85
2022/06/26 06:38:02;;;;;;;3.53;2.95;;;24.00;99.90;;;;;;4906976;29;20033;-85
2022/06/26 06:40:29;;;;;;;3.78;3.10;;;24.00;99.90;;;;;;4904920;29;20025;-85
2022/06/26 06:42:58;;;;;;;5.53;3.42;;;24.20;99.90;;;;;;4909770;29;20029;-83
2022/06/26 06:45:26;;;;;;;8.93;4.25;;;24.30;99.90;;;;;;4928417;29;20031;-84
2022/06/26 06:48:01;;;;;;;4.63;3.80;;;24.40;99.90;;;;;;4940368;29;20032;-84
2022/06/26 06:50:39;;;;;;;5.90;3.40;;;24.40;99.90;;;;;;4927138;29;20036;-82
2022/06/26 06:53:06;;;;;;;8.80;3.42;;;24.50;99.90;;;;;;4935963;29;20578;-81
2022/06/26 06:55:32;;;;;;;6.05;2.97;;;24.60;99.90;;;;;;4948143;29;20032;-84
2022/06/26 06:57:59;;;;;;;4.82;3.40;;;24.70;99.90;;;;;;4934573;29;20040;-84
2022/06/26 07:00:25;;;;;;;7.30;3.40;;;24.70;99.90;;;;;;4931731;29;20028;-85
2022/06/26 07:02:51;;;;;;;4.65;3.42;;;24.80;99.90;;;;;;4926355;29;20036;-86
2022/06/26 07:05:19;;;;;;;7.90;3.80;;;24.90;99.90;;;;;;4928955;29;20130;-88
2022/06/26 07:07:47;;;;;;;7.82;3.55;;;24.90;99.90;;;;;;4925950;29;20036;-85
2022/06/26 07:10:13;;;;;;;7.10;3.22;;;24.90;99.90;;;;;;4923274;29;20028;-85
2022/06/26 07:12:39;;;;;;;6.45;3.47;;;24.80;99.90;;;;;;4938036;29;20036;-83
2022/06/26 07:15:06;;;;;;;6.95;3.30;;;24.80;99.90;;;;;;4924244;29;20024;-84
2022/06/26 07:17:31;;;;;;;5.88;3.17;;;24.80;99.90;;;;;;4927182;29;20096;-86
2022/06/26 07:19:58;;;;;;;4.35;3.13;;;24.80;99.90;;;;;;4927617;29;20055;-85
2022/06/26 07:22:24;;;;;;;4.75;3.00;;;24.80;99.90;;;;;;4929829;29;20032;-84
2022/06/26 07:24:58;;;;;;;4.35;2.85;;;24.70;99.90;;;;;;4932470;29;20117;-84
2022/06/26 07:27:35;;;;;;;3.53;3.00;;;24.60;99.90;;;;;;4942566;29;20123;-85
2022/06/26 07:30:01;;;;;;;4.30;3.30;;;24.60;99.90;;;;;;4926460;29;20028;-85
2022/06/26 07:32:27;;;;;;;5.05;3.00;;;24.70;99.90;;;;;;4927033;29;20038;-82
2022/06/26 07:34:54;;;;;;;9.63;3.22;;;24.80;99.90;;;;;;4925967;29;20481;-84
2022/06/26 07:37:20;;;;;;;3.08;2.72;;;24.80;99.90;;;;;;4928518;29;20031;-83
2022/06/26 07:39:46;;;;;;;4.47;2.90;;;24.90;99.90;;;;;;4928093;29;20029;-86
2022/06/26 07:42:12;;;;;;;5.30;3.30;;;25.00;99.90;;;;;;4948901;29;20150;-84
2022/06/26 07:44:40;;;;;;;5.18;3.13;;;25.10;99.90;;;;;;4950600;29;20032;-83
2022/06/26 07:47:10;;;;;;;15.88;4.97;;;25.20;99.90;;;;;;4951082;29;20107;-85
2022/06/26 07:49:54;;;;;;;6.03;3.05;;;25.30;99.90;;;;;;4943422;29;20043;-85
2022/06/26 07:52:23;;;;;;;5.07;3.00;;;25.40;99.90;;;;;;4917812;29;20029;-90
2022/06/26 07:54:49;;;;;;;6.10;3.25;;;25.40;99.90;;;;;;4915656;29;20036;-88
2022/06/26 07:57:15;;;;;;;3.13;2.42;;;25.60;99.90;;;;;;4931984;29;20189;-90
2022/06/26 07:59:41;;;;;;;7.35;3.03;;;25.80;99.90;;;;;;4917341;29;20114;-89
2022/06/26 08:02:07;;;;;;;3.72;3.22;;;25.90;99.90;;;;;;4921815;29;20492;-89
2022/06/26 08:04:33;;;;;;;4.13;3.28;;;26.00;99.90;;;;;;4936786;29;20012;-87
2022/06/26 08:06:59;;;;;;;6.13;3.45;;;26.10;99.90;;;;;;4958932;28;20028;-86
2022/06/26 08:09:25;;;;;;;4.28;3.35;;;26.10;99.90;;;;;;4958542;28;20048;-88
2022/06/26 08:11:51;;;;;;;4.03;3.50;;;26.10;99.90;;;;;;4943443;29;20028;-86
2022/06/26 08:46:44;;;;;;;3.67;3.00;;;26.00;99.90;;;;;;4850793;26;20071;-90
2022/06/26 08:49:24;;;;;;;6.93;3.30;;;26.10;99.90;;;;;;4960557;28;20055;-88
2022/06/26 08:51:51;;;;;;;4.70;3.20;;;26.20;99.90;;;;;;4944227;28;20108;-89
2022/06/26 08:54:21;;;;;;;4.07;3.33;;;26.30;99.90;;;;;;4960981;28;20020;-89
2022/06/26 08:56:49;;;;;;;5.30;3.42;;;26.20;99.90;;;;;;4960544;28;20052;-87
2022/06/26 08:59:20;;;;;;;4.78;3.17;;;26.30;99.90;;;;;;5036303;23;20035;-89
2022/06/26 09:01:46;;;;;;;6.53;3.78;;;26.30;99.90;;;;;;5072188;23;20039;-89
2022/06/26 09:04:17;;;;;;;4.60;3.42;;;26.30;99.90;;;;;;4943789;29;20095;-90
2022/06/26 09:06:44;;;;;;;4.00;3.35;;;26.40;99.90;;;;;;4939784;29;20048;-89
2022/06/26 09:09:25;;;;;;;4.03;3.33;;;26.60;99.90;;;;;;4939686;29;20072;-90
2022/06/26 09:12:07;;;;;;;6.18;3.88;;;26.80;99.90;;;;;;4976116;23;20056;-91
2022/06/26 09:14:33;;;;;;;3.60;3.30;;;26.90;99.90;;;;;;4943728;29;20031;-90
2022/06/26 09:16:59;;;;;;;4.47;3.30;;;27.00;99.90;;;;;;4966694;23;20047;-89
2022/06/26 09:19:29;;;;;;;4.60;3.65;;;27.00;99.90;;;;;;4954298;28;20044;-90
2022/06/26 09:22:16;;;;;;;5.80;3.40;;;27.00;99.90;;;;;;4950068;29;20028;-89
2022/06/26 09:24:55;;;;;;;4.35;3.20;;;26.90;99.90;;;;;;4935074;29;20042;-90
2022/06/26 09:27:21;;;;;;;3.95;3.08;;;26.80;99.90;;;;;;4950095;29;20035;-88
2022/06/26 09:29:49;;;;;;;3.92;3.50;;;26.90;99.90;;;;;;4948567;29;20059;-88
2022/06/26 09:32:17;;;;;;;4.30;3.30;;;26.90;99.90;;;;;;4949444;29;20032;-88
2022/06/26 09:34:49;;;;;;;6.35;3.38;;;26.90;99.90;;;;;;4955554;28;20043;-88
2022/06/26 09:37:18;;;;;;;15.13;3.67;;;26.90;99.90;;;;;;4959972;28;20008;-88
2022/06/26 09:39:45;;;;;;;4.38;3.03;;;27.00;99.90;;;;;;4943760;28;20020;-89
2022/06/26 09:42:21;;;;;;;5.68;3.42;;;27.20;99.90;;;;;;5016900;23;20055;-89
2022/06/26 09:44:49;;;;;;;3.83;3.00;;;27.40;99.90;;;;;;4951115;29;20042;-88
2022/06/26 09:47:31;;;;;;;4.82;3.25;;;27.50;99.90;;;;;;4948676;29;20439;-87
2022/06/26 09:50:02;;;;;;;6.53;3.45;;;27.90;99.90;;;;;;4933930;29;20043;-89
2022/06/26 09:52:31;;;;;;;7.38;3.50;;;28.10;99.50;;;;;;4949240;29;20130;-88
2022/06/26 09:55:00;;;;;;;3.30;3.00;;;28.40;99.20;;;;;;4955245;29;20364;-88
2022/06/26 09:57:28;;;;;;;5.28;3.15;;;28.70;98.70;;;;;;4956510;29;20043;-89
2022/06/26 09:59:55;;;;;;;3.90;2.83;;;29.00;98.00;;;;;;4955440;28;20043;-89
2022/06/26 10:07:48;;;;;;;2.58;2.38;;;31.80;93.90;;;;;;4939652;29;20252;-88
2022/06/26 10:10:17;;;;;;;5.35;2.50;;;33.00;92.40;;;;;;4951653;29;20040;-89
2022/06/26 10:12:45;;;;;;;2.80;2.30;;;32.70;91.70;;;;;;4931564;29;20032;-89
2022/06/26 10:15:14;;;;;;;2.40;2.17;;;33.00;91.30;;;;;;4929730;29;20032;-87
2022/06/26 10:18:25;;;;;;;6.38;2.20;;;33.60;90.40;;;;;;4931759;29;20036;-87
2022/06/26 10:20:54;;;;;;;3.17;2.13;;;34.50;88.40;;;;;;4935035;29;20028;-89
2022/06/26 10:23:36;;;;;;;3.00;2.20;;;34.60;85.20;;;;;;4916976;29;20039;-90
2022/06/26 10:26:21;;;;;;;3.78;2.30;;;36.10;83.30;;;;;;4936191;29;20035;-92
2022/06/26 10:29:07;;;;;;;2.78;2.00;;;37.10;79.20;;;;;;4930491;29;20087;-89
2022/06/26 10:31:42;;;;;;;3.88;2.15;;;37.00;76.40;;;;;;4929832;29;20036;-88
2022/06/26 10:34:23;;;;;;;2.28;1.90;;;37.30;75.80;;;;;;4931722;29;20013;-90
2022/06/26 10:37:14;;;;;;;3.13;2.03;;;39.20;73.10;;;;;;4930149;29;20036;-89
2022/06/26 10:39:41;;;;;;;3.70;2.10;;;41.00;68.70;;;;;;4933241;29;20008;-89
2022/06/26 10:45:09;;;;;;;2.17;1.70;;;42.90;63.70;;;;;;4936868;29;20037;-89
2022/06/26 10:47:54;;;;;;;3.47;1.80;;;42.70;61.70;;;;;;4935344;29;20040;-89
2022/06/26 10:50:33;;;;;;;2.92;2.05;;;43.50;60.40;;;;;;4936796;29;20091;-88
2022/06/26 10:53:25;;;;;;;3.05;1.90;;;43.90;58.60;;;;;;4936826;29;20036;-89
2022/06/26 10:56:05;;;;;;;2.53;1.65;;;44.10;57.60;;;;;;4936792;29;20039;-88
2022/06/26 10:58:41;;;;;;;2.42;1.90;;;43.70;57.70;;;;;;4922626;29;20032;-88
2022/06/26 11:01:09;;;;;;;2.28;1.98;;;43.80;57.00;;;;;;4938383;29;20064;-89
2022/06/26 11:03:37;;;;;;;3.80;2.22;;;44.30;56.10;;;;;;4938477;29;20088;-90
2022/06/26 11:06:11;;;;;;;4.57;2.40;;;44.00;55.70;;;;;;4938977;29;20043;-90
2022/06/26 11:08:42;;;;;;;2.95;1.80;;;43.60;55.50;;;;;;4924110;29;20109;-88
2022/06/26 11:11:34;;;;;;;2.78;1.88;;;44.80;54.60;;;;;;4940345;29;20036;-87
2022/06/26 11:14:01;;;;;;;3.85;2.00;;;45.30;53.90;;;;;;4938708;29;20054;-88
2022/06/26 11:16:38;;;;;;;1.70;1.60;;;44.70;53.30;;;;;;4921381;29;20012;-88
2022/06/26 11:19:20;;;;;;;1.98;1.80;;;44.50;52.60;;;;;;4924690;29;20032;-87
2022/06/26 11:21:45;;;;;;;3.60;1.92;;;45.10;52.40;;;;;;4941662;29;20027;-89
2022/06/26 11:24:11;;;;;;;7.30;2.05;;;45.00;52.20;;;;;;4940367;29;20036;-88
2022/06/26 11:26:37;;;;;;;1.92;1.80;;;44.70;52.80;;;;;;4943572;29;20016;-88
2022/06/26 11:29:04;;;;;;;1.98;1.77;;;43.80;52.60;;;;;;4942677;29;20024;-89
2022/06/26 11:31:32;;;;;;;2.30;1.95;;;43.10;53.50;;;;;;4943049;29;20089;-87
2022/06/26 11:34:10;;;;;;;2.78;2.30;;;43.20;53.40;;;;;;4942840;29;20059;-87
2022/06/26 11:36:36;;;;;;;3.95;1.80;;;43.40;53.80;;;;;;4941216;29;20081;-88
2022/06/26 11:39:02;;;;;;;3.03;2.00;;;43.80;53.20;;;;;;4938022;29;20046;-90
2022/06/26 11:41:28;;;;;;;3.47;2.80;;;44.30;52.50;;;;;;4936682;29;20059;-87
2022/06/26 11:43:55;;;;;;;4.78;2.40;;;44.70;52.80;;;;;;4935913;29;20035;-88
2022/06/26 11:46:22;;;;;;;3.20;2.05;;;44.30;52.70;;;;;;4934618;29;20104;-88
2022/06/26 11:48:53;;;;;;;4.47;2.35;;;45.10;52.30;;;;;;4940446;29;20020;-87
2022/06/26 11:51:20;;;;;;;3.00;2.20;;;46.20;51.40;;;;;;4937478;29;20059;-88
2022/06/26 11:53:48;;;;;;;3.72;2.30;;;45.30;51.20;;;;;;4935137;29;20032;-87
2022/06/26 11:56:32;;;;;;;4.80;1.95;;;44.40;52.20;;;;;;4933920;29;20036;-89
2022/06/26 11:58:59;;;;;;;2.88;1.80;;;44.50;52.30;;;;;;4931215;29;20100;-89
2022/06/26 12:01:34;;;;;;;2.28;2.03;;;46.00;51.70;;;;;;4932072;29;20032;-89
2022/06/26 12:04:01;;;;;;;2.90;2.13;;;47.40;50.00;;;;;;4932212;29;20392;-88
2022/06/26 12:06:40;;;;;;;3.80;2.10;;;47.80;49.80;;;;;;4946557;23;20112;-87
2022/06/26 12:09:20;;;;;;;2.47;2.00;;;46.80;49.90;;;;;;4951964;29;20031;-86
2022/06/26 12:11:49;;;;;;;2.45;2.08;;;46.20;50.30;;;;;;4954862;29;20024;-87
2022/06/26 12:14:18;;;;;;;4.90;2.10;;;45.80;50.30;;;;;;4952653;29;20038;-87
2022/06/26 12:16:55;;;;;;;5.03;2.45;;;44.80;50.20;;;;;;4950443;29;20040;-87
2022/06/26 12:19:22;;;;;;;4.43;2.70;;;43.00;51.90;;;;;;4952454;29;20035;-86
2022/06/26 12:21:50;;;;;;;3.08;2.17;;;41.00;53.60;;;;;;4952285;29;20056;-87
2022/06/26 12:24:17;;;;;;;3.00;2.05;;;39.80;55.10;;;;;;4951699;29;20031;-87
2022/06/26 12:26:44;;;;;;;2.53;2.10;;;39.80;55.10;;;;;;4952969;29;20060;-86
2022/06/26 12:29:14;;;;;;;2.80;1.88;;;41.00;54.70;;;;;;4951816;29;20035;-86
2022/06/26 12:31:42;;;;;;;2.67;2.47;;;42.40;53.30;;;;;;4954664;29;20036;-87
2022/06/26 12:34:08;;;;;;;9.10;2.33;;;43.60;52.00;;;;;;4957520;29;20060;-85
2022/06/26 12:36:37;;;;;;;2.58;1.80;;;44.50;50.90;;;;;;4956388;29;20028;-87
2022/06/26 12:39:11;;;;;;;3.30;2.10;;;45.40;49.50;;;;;;4953621;29;20043;-87
2022/06/26 12:41:38;;;;;;;2.20;2.00;;;45.80;49.40;;;;;;4953318;29;20035;-86
2022/06/26 12:44:04;;;;;;;3.65;2.20;;;46.20;49.30;;;;;;4934880;29;20028;-86
2022/06/26 12:46:31;;;;;;;4.78;2.20;;;45.00;50.10;;;;;;4950339;29;20059;-86
2022/06/26 12:48:58;;;;;;;2.65;2.00;;;45.10;50.70;;;;;;4947892;29;20039;-86
2022/06/26 12:51:25;;;;;;;2.13;1.92;;;46.00;49.80;;;;;;4952327;29;20042;-86
2022/06/26 12:53:51;;;;;;;2.33;1.70;;;45.80;49.60;;;;;;4954860;29;20051;-85
2022/06/26 12:56:18;;;;;;;3.47;2.05;;;46.00;49.30;;;;;;4950113;29;20040;-87
2022/06/26 12:58:44;;;;;;;2.53;2.17;;;46.40;48.90;;;;;;4946957;29;20099;-85
2022/06/26 13:01:10;;;;;;;4.47;2.22;;;46.80;48.20;;;;;;4946071;29;20035;-86
2022/06/26 13:03:36;;;;;;;2.15;1.80;;;46.50;48.20;;;;;;4948143;28;20024;-87
2022/06/26 13:06:03;;;;;;;2.92;2.20;;;46.80;48.20;;;;;;4953706;28;20052;-86
2022/06/26 13:08:30;;;;;;;2.70;2.17;;;47.10;48.20;;;;;;4946010;29;20030;-86
2022/06/26 13:11:23;;;;;;;3.53;2.30;;;46.70;48.40;;;;;;4947066;29;20122;-87
2022/06/26 13:13:43;;;;;;;3.45;2.15;;;46.20;48.70;;;;;;4946833;29;20040;-86
2022/06/26 13:16:09;;;;;;;1.98;1.88;;;46.40;48.50;;;;;;4947862;29;20024;-87
2022/06/26 13:18:34;;;;;;;2.55;1.98;;;46.50;48.40;;;;;;4949838;29;20036;-86
2022/06/26 13:21:00;;;;;;;5.63;1.70;;;46.40;48.10;;;;;;4952889;29;20035;-85
2022/06/26 13:23:26;;;;;;;3.53;2.30;;;46.20;47.80;;;;;;4950848;29;20027;-86
2022/06/26 13:25:52;;;;;;;3.78;2.20;;;46.10;48.30;;;;;;4952178;29;20031;-87
2022/06/26 13:28:18;;;;;;;2.25;2.05;;;46.20;48.20;;;;;;4949384;29;20035;-85
2022/06/26 13:30:43;;;;;;;5.35;2.00;;;46.70;48.10;;;;;;4950336;29;20024;-87
2022/06/26 13:33:09;;;;;;;5.88;2.20;;;47.00;47.80;;;;;;4949663;29;20032;-87
2022/06/26 13:35:35;;;;;;;3.67;1.88;;;47.40;46.80;;;;;;4946547;29;20027;-85
2022/06/26 13:38:01;;;;;;;2.30;2.10;;;47.80;46.20;;;;;;4949051;29;20063;-86
2022/06/26 13:40:27;;;;;;;3.50;2.00;;;47.90;46.10;;;;;;4948195;29;20035;-85
2022/06/26 13:42:53;;;;;;;3.03;1.80;;;46.80;46.70;;;;;;4955590;29;20091;-85